sensor_id;sensor_type;location;lat;lon;timestamp;temperature;humidity
40622;DHT22;26324;52.040;11.528;2022-07-11T00:02:15;12.70;79.00
40622;DHT22;26324;52.040;11.528;2022-07-11T00:04:41;12.60;79.20
40622;DHT22;26324;52.040;11.528;2022-07-11T00:07:08;12.60;79.60
40622;DHT22;26324;52.040;11.528;2022-07-11T00:09:34;12.60;79.50
40622;DHT22;26324;52.040;11.528;2022-07-11T00:12:00;12.50;79.80
40622;DHT22;26324;52.040;11.528;2022-07-11T00:14:26;12.40;80.10
40622;DHT22;26324;52.040;11.528;2022-07-11T00:16:52;12.30;80.50
40622;DHT22;26324;52.040;11.528;2022-07-11T00:19:19;12.30;81.00
40622;DHT22;26324;52.040;11.528;2022-07-11T00:21:45;12.30;81.00
40622;DHT22;26324;52.040;11.528;2022-07-11T00:24:11;12.40;81.20
40622;DHT22;26324;52.040;11.528;2022-07-11T00:26:37;12.30;81.20
40622;DHT22;26324;52.040;11.528;2022-07-11T00:29:03;12.30;81.40
40622;DHT22;26324;52.040;11.528;2022-07-11T00:31:29;12.30;81.40
40622;DHT22;26324;52.040;11.528;2022-07-11T00:33:56;12.30;81.10
40622;DHT22;26324;52.040;11.528;2022-07-11T00:36:21;12.20;81.60
40622;DHT22;26324;52.040;11.528;2022-07-11T00:38:47;12.20;81.50
40622;DHT22;26324;52.040;11.528;2022-07-11T00:41:13;12.10;81.60
40622;DHT22;26324;52.040;11.528;2022-07-11T00:43:40;12.10;82.10
40622;DHT22;26324;52.040;11.528;2022-07-11T00:46:07;12.00;82.10
40622;DHT22;26324;52.040;11.528;2022-07-11T00:48:33;12.00;82.50
40622;DHT22;26324;52.040;11.528;2022-07-11T00:51:02;12.00;82.70
40622;DHT22;26324;52.040;11.528;2022-07-11T00:53:28;12.10;82.50
40622;DHT22;26324;52.040;11.528;2022-07-11T00:55:55;12.00;82.50
40622;DHT22;26324;52.040;11.528;2022-07-11T00:58:21;12.00;82.80
40622;DHT22;26324;52.040;11.528;2022-07-11T01:00:47;12.00;83.00
40622;DHT22;26324;52.040;11.528;2022-07-11T01:03:13;12.10;82.50
40622;DHT22;26324;52.040;11.528;2022-07-11T01:05:39;12.00;82.80
40622;DHT22;26324;52.040;11.528;2022-07-11T01:08:05;12.00;82.90
40622;DHT22;26324;52.040;11.528;2022-07-11T01:10:31;11.90;82.60
40622;DHT22;26324;52.040;11.528;2022-07-11T01:12:57;11.90;83.40
40622;DHT22;26324;52.040;11.528;2022-07-11T01:15:23;11.90;82.90
40622;DHT22;26324;52.040;11.528;2022-07-11T01:17:50;11.90;83.10
40622;DHT22;26324;52.040;11.528;2022-07-11T01:20:17;11.90;83.10
40622;DHT22;26324;52.040;11.528;2022-07-11T01:22:45;11.90;83.30
40622;DHT22;26324;52.040;11.528;2022-07-11T01:25:15;11.90;83.40
40622;DHT22;26324;52.040;11.528;2022-07-11T01:28:05;11.80;83.40
40622;DHT22;26324;52.040;11.528;2022-07-11T01:30:32;11.80;83.50
40622;DHT22;26324;52.040;11.528;2022-07-11T01:32:58;11.80;83.00
40622;DHT22;26324;52.040;11.528;2022-07-11T01:35:25;11.80;82.90
40622;DHT22;26324;52.040;11.528;2022-07-11T01:37:50;11.80;83.60
40622;DHT22;26324;52.040;11.528;2022-07-11T01:40:35;11.70;83.80
40622;DHT22;26324;52.040;11.528;2022-07-11T01:43:01;11.70;83.90
40622;DHT22;26324;52.040;11.528;2022-07-11T01:45:26;11.80;83.80
40622;DHT22;26324;52.040;11.528;2022-07-11T01:47:52;11.70;84.00
40622;DHT22;26324;52.040;11.528;2022-07-11T01:50:17;11.80;84.20
40622;DHT22;26324;52.040;11.528;2022-07-11T01:52:43;11.70;84.40
40622;DHT22;26324;52.040;11.528;2022-07-11T01:55:09;11.70;84.60
40622;DHT22;26324;52.040;11.528;2022-07-11T01:57:36;11.70;84.50
40622;DHT22;26324;52.040;11.528;2022-07-11T02:00:02;11.70;84.70
40622;DHT22;26324;52.040;11.528;2022-07-11T02:02:28;11.70;84.60
40622;DHT22;26324;52.040;11.528;2022-07-11T02:04:54;11.60;84.50
40622;DHT22;26324;52.040;11.528;2022-07-11T02:07:22;11.60;84.50
40622;DHT22;26324;52.040;11.528;2022-07-11T02:10:20;11.60;84.30
40622;DHT22;26324;52.040;11.528;2022-07-11T02:12:48;11.60;84.40
40622;DHT22;26324;52.040;11.528;2022-07-11T02:15:13;11.50;84.40
40622;DHT22;26324;52.040;11.528;2022-07-11T02:17:50;11.50;84.60
40622;DHT22;26324;52.040;11.528;2022-07-11T02:20:19;11.50;85.10
40622;DHT22;26324;52.040;11.528;2022-07-11T02:22:44;11.50;85.40
40622;DHT22;26324;52.040;11.528;2022-07-11T02:25:11;11.40;85.30
40622;DHT22;26324;52.040;11.528;2022-07-11T02:27:37;11.50;85.40
40622;DHT22;26324;52.040;11.528;2022-07-11T02:30:03;11.50;85.70
40622;DHT22;26324;52.040;11.528;2022-07-11T02:32:28;11.50;85.80
40622;DHT22;26324;52.040;11.528;2022-07-11T02:34:54;11.50;86.00
40622;DHT22;26324;52.040;11.528;2022-07-11T02:37:19;11.50;86.20
40622;DHT22;26324;52.040;11.528;2022-07-11T02:39:49;11.60;86.20
40622;DHT22;26324;52.040;11.528;2022-07-11T02:42:15;11.50;86.30
40622;DHT22;26324;52.040;11.528;2022-07-11T02:44:40;11.50;86.20
40622;DHT22;26324;52.040;11.528;2022-07-11T02:47:07;11.50;85.80
40622;DHT22;26324;52.040;11.528;2022-07-11T02:49:33;11.40;85.60
40622;DHT22;26324;52.040;11.528;2022-07-11T02:51:59;11.40;85.40
40622;DHT22;26324;52.040;11.528;2022-07-11T02:54:24;11.30;85.40
40622;DHT22;26324;52.040;11.528;2022-07-11T02:56:50;11.20;85.70
40622;DHT22;26324;52.040;11.528;2022-07-11T02:59:15;11.10;86.20
40622;DHT22;26324;52.040;11.528;2022-07-11T03:01:41;11.10;86.40
40622;DHT22;26324;52.040;11.528;2022-07-11T03:04:10;11.10;86.60
40622;DHT22;26324;52.040;11.528;2022-07-11T03:06:36;11.20;86.50
40622;DHT22;26324;52.040;11.528;2022-07-11T03:09:04;11.20;86.60
40622;DHT22;26324;52.040;11.528;2022-07-11T03:11:30;11.20;86.50
40622;DHT22;26324;52.040;11.528;2022-07-11T03:13:55;11.20;86.50
40622;DHT22;26324;52.040;11.528;2022-07-11T03:16:21;11.30;86.50
40622;DHT22;26324;52.040;11.528;2022-07-11T03:18:46;11.20;86.50
40622;DHT22;26324;52.040;11.528;2022-07-11T03:21:12;11.10;87.20
40622;DHT22;26324;52.040;11.528;2022-07-11T03:23:37;11.20;87.30
40622;DHT22;26324;52.040;11.528;2022-07-11T03:26:27;11.10;87.60
40622;DHT22;26324;52.040;11.528;2022-07-11T03:28:52;11.30;87.50
40622;DHT22;26324;52.040;11.528;2022-07-11T03:31:18;11.30;87.50
40622;DHT22;26324;52.040;11.528;2022-07-11T03:33:44;11.30;87.50
40622;DHT22;26324;52.040;11.528;2022-07-11T03:36:21;11.30;87.50
40622;DHT22;26324;52.040;11.528;2022-07-11T03:38:46;11.40;87.40
40622;DHT22;26324;52.040;11.528;2022-07-11T03:41:17;11.50;87.50
40622;DHT22;26324;52.040;11.528;2022-07-11T03:43:43;11.50;87.40
40622;DHT22;26324;52.040;11.528;2022-07-11T03:46:08;11.50;87.30
40622;DHT22;26324;52.040;11.528;2022-07-11T03:48:34;11.50;87.50
40622;DHT22;26324;52.040;11.528;2022-07-11T03:50:59;11.40;87.80
40622;DHT22;26324;52.040;11.528;2022-07-11T03:53:25;11.50;87.80
40622;DHT22;26324;52.040;11.528;2022-07-11T03:55:50;11.60;87.30
40622;DHT22;26324;52.040;11.528;2022-07-11T03:58:16;11.60;87.40
40622;DHT22;26324;52.040;11.528;2022-07-11T04:00:41;11.60;87.20
40622;DHT22;26324;52.040;11.528;2022-07-11T04:03:07;11.60;87.20
40622;DHT22;26324;52.040;11.528;2022-07-11T04:05:33;11.60;87.30
40622;DHT22;26324;52.040;11.528;2022-07-11T04:07:59;11.70;87.10
40622;DHT22;26324;52.040;11.528;2022-07-11T04:10:25;11.80;86.70
40622;DHT22;26324;52.040;11.528;2022-07-11T04:12:50;11.80;86.80
40622;DHT22;26324;52.040;11.528;2022-07-11T04:15:16;12.00;86.90
40622;DHT22;26324;52.040;11.528;2022-07-11T04:17:54;12.10;87.00
40622;DHT22;26324;52.040;11.528;2022-07-11T04:20:19;12.10;87.30
40622;DHT22;26324;52.040;11.528;2022-07-11T04:22:45;12.20;87.50
40622;DHT22;26324;52.040;11.528;2022-07-11T04:25:11;12.30;87.70
40622;DHT22;26324;52.040;11.528;2022-07-11T04:27:36;12.30;87.60
40622;DHT22;26324;52.040;11.528;2022-07-11T04:30:02;12.50;87.70
40622;DHT22;26324;52.040;11.528;2022-07-11T04:32:28;12.60;87.60
40622;DHT22;26324;52.040;11.528;2022-07-11T04:34:53;12.60;87.40
40622;DHT22;26324;52.040;11.528;2022-07-11T04:37:19;12.70;87.40
40622;DHT22;26324;52.040;11.528;2022-07-11T04:39:44;12.80;87.40
40622;DHT22;26324;52.040;11.528;2022-07-11T04:42:12;12.80;87.30
40622;DHT22;26324;52.040;11.528;2022-07-11T04:44:37;12.90;87.10
40622;DHT22;26324;52.040;11.528;2022-07-11T04:47:03;13.00;87.10
40622;DHT22;26324;52.040;11.528;2022-07-11T04:49:29;13.00;87.20
40622;DHT22;26324;52.040;11.528;2022-07-11T04:51:54;13.10;86.90
40622;DHT22;26324;52.040;11.528;2022-07-11T04:54:22;13.30;86.80
40622;DHT22;26324;52.040;11.528;2022-07-11T04:56:48;13.20;86.80
40622;DHT22;26324;52.040;11.528;2022-07-11T04:59:14;13.30;86.60
40622;DHT22;26324;52.040;11.528;2022-07-11T05:01:40;13.50;86.80
40622;DHT22;26324;52.040;11.528;2022-07-11T05:04:06;13.60;86.80
40622;DHT22;26324;52.040;11.528;2022-07-11T05:06:33;13.70;86.50
40622;DHT22;26324;52.040;11.528;2022-07-11T05:08:58;13.70;86.30
40622;DHT22;26324;52.040;11.528;2022-07-11T05:11:24;13.70;86.10
40622;DHT22;26324;52.040;11.528;2022-07-11T05:13:49;13.70;86.20
40622;DHT22;26324;52.040;11.528;2022-07-11T05:16:15;13.80;86.20
40622;DHT22;26324;52.040;11.528;2022-07-11T05:18:40;13.90;85.90
40622;DHT22;26324;52.040;11.528;2022-07-11T05:21:06;14.00;85.70
40622;DHT22;26324;52.040;11.528;2022-07-11T05:23:32;14.00;85.50
40622;DHT22;26324;52.040;11.528;2022-07-11T05:25:57;14.10;85.50
40622;DHT22;26324;52.040;11.528;2022-07-11T05:28:23;14.20;85.20
40622;DHT22;26324;52.040;11.528;2022-07-11T05:30:48;14.30;85.30
40622;DHT22;26324;52.040;11.528;2022-07-11T05:33:14;14.40;84.80
40622;DHT22;26324;52.040;11.528;2022-07-11T05:35:39;14.40;84.30
40622;DHT22;26324;52.040;11.528;2022-07-11T05:38:05;14.50;84.30
40622;DHT22;26324;52.040;11.528;2022-07-11T05:40:30;14.50;84.00
40622;DHT22;26324;52.040;11.528;2022-07-11T05:42:56;14.60;84.00
40622;DHT22;26324;52.040;11.528;2022-07-11T05:45:21;14.80;83.50
40622;DHT22;26324;52.040;11.528;2022-07-11T05:47:47;14.90;83.00
40622;DHT22;26324;52.040;11.528;2022-07-11T05:50:12;15.10;82.90
40622;DHT22;26324;52.040;11.528;2022-07-11T05:52:38;15.30;80.60
40622;DHT22;26324;52.040;11.528;2022-07-11T05:55:04;15.40;80.80
40622;DHT22;26324;52.040;11.528;2022-07-11T05:57:29;15.40;79.90
40622;DHT22;26324;52.040;11.528;2022-07-11T05:59:55;15.50;79.20
40622;DHT22;26324;52.040;11.528;2022-07-11T06:02:20;15.40;79.00
40622;DHT22;26324;52.040;11.528;2022-07-11T06:04:46;15.30;79.40
40622;DHT22;26324;52.040;11.528;2022-07-11T06:07:11;15.50;78.70
40622;DHT22;26324;52.040;11.528;2022-07-11T06:09:57;15.70;79.10
40622;DHT22;26324;52.040;11.528;2022-07-11T06:12:23;15.90;76.80
40622;DHT22;26324;52.040;11.528;2022-07-11T06:14:48;15.80;76.20
40622;DHT22;26324;52.040;11.528;2022-07-11T06:17:14;15.70;76.40
40622;DHT22;26324;52.040;11.528;2022-07-11T06:19:39;15.70;76.80
40622;DHT22;26324;52.040;11.528;2022-07-11T06:22:05;15.50;77.40
40622;DHT22;26324;52.040;11.528;2022-07-11T06:24:30;15.50;77.80
40622;DHT22;26324;52.040;11.528;2022-07-11T06:26:57;15.40;77.80
40622;DHT22;26324;52.040;11.528;2022-07-11T06:29:26;15.30;78.40
40622;DHT22;26324;52.040;11.528;2022-07-11T06:31:51;15.40;78.70
40622;DHT22;26324;52.040;11.528;2022-07-11T06:34:18;15.60;77.90
40622;DHT22;26324;52.040;11.528;2022-07-11T06:36:43;15.60;77.10
40622;DHT22;26324;52.040;11.528;2022-07-11T06:39:09;15.70;76.50
40622;DHT22;26324;52.040;11.528;2022-07-11T06:41:34;15.70;75.80
40622;DHT22;26324;52.040;11.528;2022-07-11T06:44:00;15.80;75.50
40622;DHT22;26324;52.040;11.528;2022-07-11T06:46:25;16.10;75.20
40622;DHT22;26324;52.040;11.528;2022-07-11T06:48:52;16.50;73.00
40622;DHT22;26324;52.040;11.528;2022-07-11T06:51:18;16.70;72.30
40622;DHT22;26324;52.040;11.528;2022-07-11T06:53:44;16.80;71.60
40622;DHT22;26324;52.040;11.528;2022-07-11T06:56:09;17.00;70.60
40622;DHT22;26324;52.040;11.528;2022-07-11T06:58:35;17.20;68.10
40622;DHT22;26324;52.040;11.528;2022-07-11T07:01:03;17.10;66.80
40622;DHT22;26324;52.040;11.528;2022-07-11T07:03:29;17.10;66.70
40622;DHT22;26324;52.040;11.528;2022-07-11T07:05:56;17.10;66.30
40622;DHT22;26324;52.040;11.528;2022-07-11T07:08:28;17.10;66.90
40622;DHT22;26324;52.040;11.528;2022-07-11T07:10:54;17.40;66.70
40622;DHT22;26324;52.040;11.528;2022-07-11T07:13:21;17.80;66.50
40622;DHT22;26324;52.040;11.528;2022-07-11T07:15:51;18.10;63.00
40622;DHT22;26324;52.040;11.528;2022-07-11T07:18:16;18.00;62.80
40622;DHT22;26324;52.040;11.528;2022-07-11T07:20:42;18.20;61.90
40622;DHT22;26324;52.040;11.528;2022-07-11T07:23:08;18.30;61.50
40622;DHT22;26324;52.040;11.528;2022-07-11T07:25:34;18.10;62.30
40622;DHT22;26324;52.040;11.528;2022-07-11T07:27:59;18.00;62.40
40622;DHT22;26324;52.040;11.528;2022-07-11T07:30:25;18.00;62.50
40622;DHT22;26324;52.040;11.528;2022-07-11T07:32:51;18.00;61.90
40622;DHT22;26324;52.040;11.528;2022-07-11T07:35:16;18.10;62.00
40622;DHT22;26324;52.040;11.528;2022-07-11T07:37:42;18.10;61.60
40622;DHT22;26324;52.040;11.528;2022-07-11T07:40:07;18.60;61.40
40622;DHT22;26324;52.040;11.528;2022-07-11T07:42:33;18.90;59.20
40622;DHT22;26324;52.040;11.528;2022-07-11T07:44:58;18.70;59.00
40622;DHT22;26324;52.040;11.528;2022-07-11T07:47:24;18.30;58.10
40622;DHT22;26324;52.040;11.528;2022-07-11T07:49:49;17.90;56.90
40622;DHT22;26324;52.040;11.528;2022-07-11T07:52:15;17.90;58.30
40622;DHT22;26324;52.040;11.528;2022-07-11T07:54:40;18.00;57.70
40622;DHT22;26324;52.040;11.528;2022-07-11T07:57:06;18.20;57.50
40622;DHT22;26324;52.040;11.528;2022-07-11T07:59:32;18.10;57.00
40622;DHT22;26324;52.040;11.528;2022-07-11T08:01:57;18.10;57.30
40622;DHT22;26324;52.040;11.528;2022-07-11T08:04:23;18.50;57.60
40622;DHT22;26324;52.040;11.528;2022-07-11T08:06:48;19.00;58.90
40622;DHT22;26324;52.040;11.528;2022-07-11T08:09:14;19.50;54.90
40622;DHT22;26324;52.040;11.528;2022-07-11T08:11:40;19.50;54.50
40622;DHT22;26324;52.040;11.528;2022-07-11T08:14:05;19.40;54.40
40622;DHT22;26324;52.040;11.528;2022-07-11T08:16:34;19.50;54.90
40622;DHT22;26324;52.040;11.528;2022-07-11T08:19:02;19.60;54.70
40622;DHT22;26324;52.040;11.528;2022-07-11T08:21:29;19.60;54.20
40622;DHT22;26324;52.040;11.528;2022-07-11T08:23:55;20.00;53.30
40622;DHT22;26324;52.040;11.528;2022-07-11T08:26:21;20.10;53.70
40622;DHT22;26324;52.040;11.528;2022-07-11T08:28:46;20.00;52.50
40622;DHT22;26324;52.040;11.528;2022-07-11T08:31:12;20.20;53.10
40622;DHT22;26324;52.040;11.528;2022-07-11T08:33:38;20.10;53.10
40622;DHT22;26324;52.040;11.528;2022-07-11T08:36:04;20.20;51.20
40622;DHT22;26324;52.040;11.528;2022-07-11T08:38:29;20.00;52.60
40622;DHT22;26324;52.040;11.528;2022-07-11T08:40:55;19.60;52.10
40622;DHT22;26324;52.040;11.528;2022-07-11T08:43:27;19.30;51.70
40622;DHT22;26324;52.040;11.528;2022-07-11T08:45:54;19.00;52.40
40622;DHT22;26324;52.040;11.528;2022-07-11T08:48:21;19.00;53.80
40622;DHT22;26324;52.040;11.528;2022-07-11T08:50:47;19.30;53.20
40622;DHT22;26324;52.040;11.528;2022-07-11T08:53:14;19.60;52.40
40622;DHT22;26324;52.040;11.528;2022-07-11T08:55:40;19.80;52.70
40622;DHT22;26324;52.040;11.528;2022-07-11T08:58:07;20.30;52.40
40622;DHT22;26324;52.040;11.528;2022-07-11T09:00:33;20.70;50.30
40622;DHT22;26324;52.040;11.528;2022-07-11T09:03:00;21.10;51.30
40622;DHT22;26324;52.040;11.528;2022-07-11T09:05:27;21.10;49.60
40622;DHT22;26324;52.040;11.528;2022-07-11T09:07:53;20.90;51.20
40622;DHT22;26324;52.040;11.528;2022-07-11T09:10:19;20.80;50.20
40622;DHT22;26324;52.040;11.528;2022-07-11T09:12:58;20.80;49.20
40622;DHT22;26324;52.040;11.528;2022-07-11T09:17:57;21.30;47.10
40622;DHT22;26324;52.040;11.528;2022-07-11T09:20:23;21.40;48.70
40622;DHT22;26324;52.040;11.528;2022-07-11T09:22:48;21.30;47.40
40622;DHT22;26324;52.040;11.528;2022-07-11T09:25:41;21.80;48.70
40622;DHT22;26324;52.040;11.528;2022-07-11T09:28:07;22.10;47.20
40622;DHT22;26324;52.040;11.528;2022-07-11T09:30:38;22.00;45.30
40622;DHT22;26324;52.040;11.528;2022-07-11T09:33:12;21.40;47.70
40622;DHT22;26324;52.040;11.528;2022-07-11T09:35:40;21.10;46.60
40622;DHT22;26324;52.040;11.528;2022-07-11T09:38:14;21.20;47.10
40622;DHT22;26324;52.040;11.528;2022-07-11T09:40:44;21.30;48.20
40622;DHT22;26324;52.040;11.528;2022-07-11T09:43:09;21.70;47.70
40622;DHT22;26324;52.040;11.528;2022-07-11T09:45:35;22.10;46.00
40622;DHT22;26324;52.040;11.528;2022-07-11T09:48:10;22.30;46.80
40622;DHT22;26324;52.040;11.528;2022-07-11T09:50:36;22.50;43.70
40622;DHT22;26324;52.040;11.528;2022-07-11T09:55:40;22.50;43.50
40622;DHT22;26324;52.040;11.528;2022-07-11T09:58:16;22.10;44.80
40622;DHT22;26324;52.040;11.528;2022-07-11T10:00:43;22.10;44.80
40622;DHT22;26324;52.040;11.528;2022-07-11T10:03:11;21.70;44.80
40622;DHT22;26324;52.040;11.528;2022-07-11T10:05:37;21.20;46.30
40622;DHT22;26324;52.040;11.528;2022-07-11T10:08:04;21.20;48.80
40622;DHT22;26324;52.040;11.528;2022-07-11T10:10:32;21.70;47.60
40622;DHT22;26324;52.040;11.528;2022-07-11T10:12:58;22.10;46.50
40622;DHT22;26324;52.040;11.528;2022-07-11T10:15:31;22.50;45.60
40622;DHT22;26324;52.040;11.528;2022-07-11T10:18:05;23.00;43.70
40622;DHT22;26324;52.040;11.528;2022-07-11T10:20:42;23.20;41.80
40622;DHT22;26324;52.040;11.528;2022-07-11T10:23:38;23.30;43.20
40622;DHT22;26324;52.040;11.528;2022-07-11T10:26:36;23.40;42.80
40622;DHT22;26324;52.040;11.528;2022-07-11T10:29:19;23.90;43.00
40622;DHT22;26324;52.040;11.528;2022-07-11T10:32:10;24.00;40.80
40622;DHT22;26324;52.040;11.528;2022-07-11T10:34:36;23.10;40.90
40622;DHT22;26324;52.040;11.528;2022-07-11T10:37:03;23.00;43.10
40622;DHT22;26324;52.040;11.528;2022-07-11T10:39:34;23.10;43.60
40622;DHT22;26324;52.040;11.528;2022-07-11T10:42:02;22.80;42.40
40622;DHT22;26324;52.040;11.528;2022-07-11T10:44:46;22.30;43.70
40622;DHT22;26324;52.040;11.528;2022-07-11T10:47:39;22.50;43.50
40622;DHT22;26324;52.040;11.528;2022-07-11T10:52:56;23.30;40.60
40622;DHT22;26324;52.040;11.528;2022-07-11T10:58:23;23.50;40.40
40622;DHT22;26324;52.040;11.528;2022-07-11T11:01:11;23.00;42.30
40622;DHT22;26324;52.040;11.528;2022-07-11T11:03:38;23.00;44.20
40622;DHT22;26324;52.040;11.528;2022-07-11T11:06:04;23.50;42.00
40622;DHT22;26324;52.040;11.528;2022-07-11T11:13:45;24.40;39.60
40622;DHT22;26324;52.040;11.528;2022-07-11T11:16:22;24.60;37.10
40622;DHT22;26324;52.040;11.528;2022-07-11T11:18:48;24.60;36.00
40622;DHT22;26324;52.040;11.528;2022-07-11T11:21:18;24.30;37.40
40622;DHT22;26324;52.040;11.528;2022-07-11T11:23:45;24.20;37.10
40622;DHT22;26324;52.040;11.528;2022-07-11T11:26:50;24.40;38.70
40622;DHT22;26324;52.040;11.528;2022-07-11T11:29:20;24.80;37.20
40622;DHT22;26324;52.040;11.528;2022-07-11T11:31:53;24.70;37.70
40622;DHT22;26324;52.040;11.528;2022-07-11T11:34:20;24.10;38.70
40622;DHT22;26324;52.040;11.528;2022-07-11T11:36:52;23.50;40.10
40622;DHT22;26324;52.040;11.528;2022-07-11T11:39:26;23.30;41.00
40622;DHT22;26324;52.040;11.528;2022-07-11T11:41:51;23.40;39.00
40622;DHT22;26324;52.040;11.528;2022-07-11T11:44:17;23.90;38.90
40622;DHT22;26324;52.040;11.528;2022-07-11T11:46:42;24.10;37.20
40622;DHT22;26324;52.040;11.528;2022-07-11T11:49:08;24.40;37.50
40622;DHT22;26324;52.040;11.528;2022-07-11T11:51:34;24.60;39.00
40622;DHT22;26324;52.040;11.528;2022-07-11T11:54:01;24.60;37.60
40622;DHT22;26324;52.040;11.528;2022-07-11T11:56:34;24.70;36.20
40622;DHT22;26324;52.040;11.528;2022-07-11T11:59:11;24.70;36.20
40622;DHT22;26324;52.040;11.528;2022-07-11T12:01:43;24.80;36.80
40622;DHT22;26324;52.040;11.528;2022-07-11T12:04:13;25.10;35.50
40622;DHT22;26324;52.040;11.528;2022-07-11T12:06:47;25.10;34.10
40622;DHT22;26324;52.040;11.528;2022-07-11T12:09:23;25.10;35.80
40622;DHT22;26324;52.040;11.528;2022-07-11T12:12:07;25.10;36.50
40622;DHT22;26324;52.040;11.528;2022-07-11T12:14:51;25.40;35.50
40622;DHT22;26324;52.040;11.528;2022-07-11T12:17:23;25.60;36.70
40622;DHT22;26324;52.040;11.528;2022-07-11T12:19:49;26.00;36.80
40622;DHT22;26324;52.040;11.528;2022-07-11T12:22:14;26.20;35.60
40622;DHT22;26324;52.040;11.528;2022-07-11T12:24:46;26.00;35.60
40622;DHT22;26324;52.040;11.528;2022-07-11T12:27:23;25.70;34.90
40622;DHT22;26324;52.040;11.528;2022-07-11T12:29:50;26.00;36.90
40622;DHT22;26324;52.040;11.528;2022-07-11T12:32:17;26.50;35.70
40622;DHT22;26324;52.040;11.528;2022-07-11T12:34:45;26.80;33.50
40622;DHT22;26324;52.040;11.528;2022-07-11T12:37:14;27.10;33.80
40622;DHT22;26324;52.040;11.528;2022-07-11T12:40:00;27.40;33.70
40622;DHT22;26324;52.040;11.528;2022-07-11T12:42:33;27.80;31.00
40622;DHT22;26324;52.040;11.528;2022-07-11T12:45:00;27.40;30.90
40622;DHT22;26324;52.040;11.528;2022-07-11T12:47:33;26.60;33.70
40622;DHT22;26324;52.040;11.528;2022-07-11T12:52:40;25.50;36.70
40622;DHT22;26324;52.040;11.528;2022-07-11T12:55:07;26.00;35.60
40622;DHT22;26324;52.040;11.528;2022-07-11T12:57:33;26.10;33.50
40622;DHT22;26324;52.040;11.528;2022-07-11T13:00:13;26.00;34.10
40622;DHT22;26324;52.040;11.528;2022-07-11T13:02:51;26.10;32.40
40622;DHT22;26324;52.040;11.528;2022-07-11T13:05:18;26.40;32.10
40622;DHT22;26324;52.040;11.528;2022-07-11T13:07:43;26.70;31.70
40622;DHT22;26324;52.040;11.528;2022-07-11T13:10:28;26.60;32.60
40622;DHT22;26324;52.040;11.528;2022-07-11T13:13:16;26.80;31.80
40622;DHT22;26324;52.040;11.528;2022-07-11T13:15:42;27.10;30.60
40622;DHT22;26324;52.040;11.528;2022-07-11T13:18:10;27.50;31.80
40622;DHT22;26324;52.040;11.528;2022-07-11T13:20:36;27.70;31.10
40622;DHT22;26324;52.040;11.528;2022-07-11T13:23:03;27.60;29.30
40622;DHT22;26324;52.040;11.528;2022-07-11T13:25:29;26.80;31.70
40622;DHT22;26324;52.040;11.528;2022-07-11T13:27:55;26.20;32.90
40622;DHT22;26324;52.040;11.528;2022-07-11T13:30:22;26.10;33.10
40622;DHT22;26324;52.040;11.528;2022-07-11T13:32:51;26.60;31.60
40622;DHT22;26324;52.040;11.528;2022-07-11T13:35:18;26.60;30.10
40622;DHT22;26324;52.040;11.528;2022-07-11T13:37:45;26.40;30.90
40622;DHT22;26324;52.040;11.528;2022-07-11T13:40:17;26.40;30.90
40622;DHT22;26324;52.040;11.528;2022-07-11T13:42:43;26.80;30.30
40622;DHT22;26324;52.040;11.528;2022-07-11T13:45:18;27.50;29.10
40622;DHT22;26324;52.040;11.528;2022-07-11T13:47:44;27.40;29.00
40622;DHT22;26324;52.040;11.528;2022-07-11T13:50:10;26.80;29.30
40622;DHT22;26324;52.040;11.528;2022-07-11T13:52:36;26.30;30.70
40622;DHT22;26324;52.040;11.528;2022-07-11T13:55:02;26.40;30.60
40622;DHT22;26324;52.040;11.528;2022-07-11T13:57:28;27.10;31.30
40622;DHT22;26324;52.040;11.528;2022-07-11T13:59:54;27.80;29.90
40622;DHT22;26324;52.040;11.528;2022-07-11T14:02:21;28.30;29.90
40622;DHT22;26324;52.040;11.528;2022-07-11T14:04:47;28.90;28.20
40622;DHT22;26324;52.040;11.528;2022-07-11T14:07:13;29.40;27.60
40622;DHT22;26324;52.040;11.528;2022-07-11T14:09:40;29.80;26.50
40622;DHT22;26324;52.040;11.528;2022-07-11T14:12:06;29.90;27.70
40622;DHT22;26324;52.040;11.528;2022-07-11T14:14:33;30.30;26.90
40622;DHT22;26324;52.040;11.528;2022-07-11T14:17:03;30.70;26.70
40622;DHT22;26324;52.040;11.528;2022-07-11T14:19:29;31.50;25.60
40622;DHT22;26324;52.040;11.528;2022-07-11T14:21:56;31.30;26.50
40622;DHT22;26324;52.040;11.528;2022-07-11T14:24:22;31.50;25.20
40622;DHT22;26324;52.040;11.528;2022-07-11T14:26:48;31.90;25.90
40622;DHT22;26324;52.040;11.528;2022-07-11T14:29:15;31.40;24.50
40622;DHT22;26324;52.040;11.528;2022-07-11T14:31:43;30.80;25.50
40622;DHT22;26324;52.040;11.528;2022-07-11T14:34:09;30.10;26.30
40622;DHT22;26324;52.040;11.528;2022-07-11T14:36:35;29.10;28.70
40622;DHT22;26324;52.040;11.528;2022-07-11T14:39:01;29.60;27.60
40622;DHT22;26324;52.040;11.528;2022-07-11T14:41:27;29.10;27.70
40622;DHT22;26324;52.040;11.528;2022-07-11T14:43:53;28.10;29.60
40622;DHT22;26324;52.040;11.528;2022-07-11T14:46:18;28.10;30.50
40622;DHT22;26324;52.040;11.528;2022-07-11T14:48:44;29.30;27.00
40622;DHT22;26324;52.040;11.528;2022-07-11T14:51:10;30.70;25.90
40622;DHT22;26324;52.040;11.528;2022-07-11T14:53:36;32.10;26.50
40622;DHT22;26324;52.040;11.528;2022-07-11T14:56:02;33.30;23.40
40622;DHT22;26324;52.040;11.528;2022-07-11T14:58:28;33.40;22.70
40622;DHT22;26324;52.040;11.528;2022-07-11T15:00:53;33.40;22.10
40622;DHT22;26324;52.040;11.528;2022-07-11T15:03:19;33.90;21.50
40622;DHT22;26324;52.040;11.528;2022-07-11T15:06:05;33.30;22.40
40622;DHT22;26324;52.040;11.528;2022-07-11T15:08:30;33.50;22.10
40622;DHT22;26324;52.040;11.528;2022-07-11T15:11:15;32.60;22.90
40622;DHT22;26324;52.040;11.528;2022-07-11T15:13:59;30.90;25.00
40622;DHT22;26324;52.040;11.528;2022-07-11T15:16:24;29.60;27.10
40622;DHT22;26324;52.040;11.528;2022-07-11T15:19:03;30.50;27.30
40622;DHT22;26324;52.040;11.528;2022-07-11T15:21:30;32.20;25.00
40622;DHT22;26324;52.040;11.528;2022-07-11T15:23:56;32.10;24.20
40622;DHT22;26324;52.040;11.528;2022-07-11T15:26:21;30.70;25.70
40622;DHT22;26324;52.040;11.528;2022-07-11T15:28:48;29.30;28.00
40622;DHT22;26324;52.040;11.528;2022-07-11T15:31:14;28.00;29.60
40622;DHT22;26324;52.040;11.528;2022-07-11T15:33:40;27.30;31.50
40622;DHT22;26324;52.040;11.528;2022-07-11T15:36:09;28.20;30.30
40622;DHT22;26324;52.040;11.528;2022-07-11T15:38:35;30.30;27.40
40622;DHT22;26324;52.040;11.528;2022-07-11T15:41:00;30.50;27.30